Time;durP1;ratioP1;P1;durP2;ratioP2;P2;SDS_P1;SDS_P2;PMS_P1;PMS_P2;Temp;Humidity;BMP_temperature;BMP_pressure;BME280_temperature;BME280_humidity;BME280_pressure;Samples;Min_cycle;Max_cycle;Signal;HPM_P1;HPM_P2
2024/02/25 00:00:09;;;;;;;8.02;2.60;;;;;;;5.17;100.00;99854.56;5066415;28;20074;-74
2024/02/25 00:02:34;;;;;;;6.95;2.40;;;;;;;5.20;100.00;99858.09;5066104;28;20028;-73
2024/02/25 00:05:00;;;;;;;5.53;2.40;;;;;;;5.23;100.00;99852.88;5067113;28;20162;-72
2024/02/25 00:07:25;;;;;;;5.60;2.30;;;;;;;5.19;100.00;99848.47;5064703;28;20491;-72
2024/02/25 00:09:51;;;;;;;4.35;2.38;;;;;;;5.18;100.00;99854.56;5067885;28;20029;-72
2024/02/25 00:12:16;;;;;;;6.35;2.40;;;;;;;5.18;100.00;99858.94;5064546;28;20078;-73
2024/02/25 00:14:42;;;;;;;6.32;2.42;;;;;;;5.18;100.00;99856.31;5066975;28;20040;-74
2024/02/25 00:17:07;;;;;;;7.03;2.40;;;;;;;5.20;100.00;99857.22;5065931;28;20032;-73
2024/02/25 00:19:32;;;;;;;6.20;2.40;;;;;;;5.19;100.00;99856.34;5065326;28;20407;-73
2024/02/25 00:21:58;;;;;;;4.40;2.22;;;;;;;5.14;100.00;99858.03;5067273;28;20029;-73
2024/02/25 00:24:23;;;;;;;5.05;2.30;;;;;;;5.12;100.00;99869.38;5063926;28;20528;-74
2024/02/25 00:26:49;;;;;;;5.88;2.47;;;;;;;4.89;100.00;99860.38;5067323;28;20028;-74
2024/02/25 00:29:15;;;;;;;6.10;2.50;;;;;;;4.63;100.00;99865.31;5064850;28;20036;-75
2024/02/25 00:31:44;;;;;;;6.30;2.50;;;;;;;4.40;100.00;99875.47;5066216;28;20033;-74
2024/02/25 00:34:09;;;;;;;5.43;2.50;;;;;;;4.31;100.00;99875.31;5063890;28;20391;-75
2024/02/25 00:36:35;;;;;;;5.32;2.55;;;;;;;4.25;100.00;99870.00;5065765;28;20028;-74
2024/02/25 00:39:02;;;;;;;6.00;2.78;;;;;;;4.21;100.00;99868.19;5066284;28;20040;-73
2024/02/25 00:41:28;;;;;;;8.90;2.70;;;;;;;4.24;100.00;99883.94;5063072;28;20025;-87
2024/02/25 00:43:53;;;;;;;6.32;2.70;;;;;;;4.36;100.00;99871.03;5067405;28;20047;-87
2024/02/25 00:46:18;;;;;;;7.35;2.63;;;;;;;4.46;100.00;99870.31;5063786;28;20146;-86
2024/02/25 00:48:44;;;;;;;8.10;2.70;;;;;;;4.59;100.00;99873.06;5066782;28;20043;-73
2024/02/25 00:51:09;;;;;;;8.40;2.60;;;;;;;4.63;100.00;99874.88;5064962;28;20028;-72
2024/02/25 00:53:35;;;;;;;6.70;2.80;;;;;;;4.68;100.00;99875.84;5064851;28;20191;-72
2024/02/25 00:56:02;;;;;;;6.72;2.55;;;;;;;4.71;100.00;99878.47;5066235;28;20475;-87
2024/02/25 00:58:27;;;;;;;5.95;2.70;;;;;;;4.77;100.00;99873.31;5063826;28;20040;-86
2024/02/25 01:00:52;;;;;;;3.97;2.60;;;;;;;4.79;100.00;99879.47;5066923;28;20020;-87
2024/02/25 01:03:18;;;;;;;6.28;2.80;;;;;;;4.79;100.00;99874.22;5063601;28;20072;-88
2024/02/25 01:05:43;;;;;;;5.00;2.70;;;;;;;4.83;100.00;99888.22;5064695;28;20063;-88
2024/02/25 01:08:09;;;;;;;5.43;2.80;;;;;;;4.81;100.00;99879.50;5064352;28;20383;-87
2024/02/25 01:10:34;;;;;;;4.93;2.65;;;;;;;4.83;100.00;99881.25;5064672;28;20468;-87
2024/02/25 01:13:00;;;;;;;6.75;2.90;;;;;;;4.90;100.00;99879.59;5066027;28;20052;-87
2024/02/25 01:15:25;;;;;;;5.80;2.70;;;;;;;4.90;100.00;99879.59;5063207;28;20472;-87
2024/02/25 01:17:50;;;;;;;7.00;2.88;;;;;;;4.85;100.00;99874.31;5066829;28;20024;-88
2024/02/25 01:20:16;;;;;;;6.05;3.00;;;;;;;4.89;100.00;99878.72;5063757;28;20064;-87
2024/02/25 01:22:41;;;;;;;7.93;2.80;;;;;;;4.91;100.00;99872.59;5065404;28;20028;-73
2024/02/25 01:25:07;;;;;;;7.75;2.85;;;;;;;4.90;100.00;99876.97;5064849;28;20048;-73
2024/02/25 01:27:32;;;;;;;7.50;2.83;;;;;;;4.93;100.00;99874.38;5063917;28;20064;-73
2024/02/25 01:29:58;;;;;;;7.53;2.90;;;;;;;4.96;100.00;99874.41;5064926;28;20040;-73
2024/02/25 01:32:23;;;;;;;7.68;2.97;;;;;;;4.89;100.00;99877.81;5041497;28;20079;-72
2024/02/25 01:34:50;;;;;;;8.48;3.05;;;;;;;4.96;100.00;99863.06;5064539;28;20037;-72
2024/02/25 01:37:15;;;;;;;8.57;3.10;;;;;;;4.92;100.00;99861.28;5063571;28;20072;-72
2024/02/25 01:39:41;;;;;;;7.60;3.00;;;;;;;4.93;100.00;99868.28;5065094;28;20025;-72
2024/02/25 01:42:07;;;;;;;7.82;3.03;;;;;;;4.97;100.00;99864.84;5064424;28;20090;-74
2024/02/25 01:44:36;;;;;;;7.78;3.17;;;;;;;4.97;100.00;99864.84;5064105;28;20057;-74
2024/02/25 01:47:02;;;;;;;7.25;3.20;;;;;;;4.92;100.00;99853.41;5065148;28;20101;-74
2024/02/25 01:49:27;;;;;;;8.85;3.22;;;;;;;4.78;100.00;99851.50;5061980;28;20166;-74
2024/02/25 01:51:53;;;;;;;8.90;3.40;;;;;;;4.77;100.00;99856.75;5066071;28;20107;-75
2024/02/25 01:54:19;;;;;;;7.35;3.22;;;;;;;4.84;100.00;99855.94;5062639;28;20040;-73
2024/02/25 01:56:44;;;;;;;7.30;3.10;;;;;;;4.85;100.00;99855.97;5064888;28;20025;-73
2024/02/25 01:59:10;;;;;;;8.18;3.38;;;;;;;4.88;100.00;99845.53;5062766;28;20102;-74
2024/02/25 02:01:35;;;;;;;9.18;3.50;;;;;;;4.93;100.00;99857.81;5063696;28;20036;-74
2024/02/25 02:04:01;;;;;;;9.45;3.53;;;;;;;4.93;100.00;99847.31;5063559;28;20076;-74
2024/02/25 02:06:27;;;;;;;8.43;3.30;;;;;;;4.84;100.00;99846.34;5061458;28;20476;-72
2024/02/25 02:08:52;;;;;;;9.05;3.40;;;;;;;4.91;100.00;99842.06;5065467;28;20471;-72
2024/02/25 02:11:19;;;;;;;8.32;3.50;;;;;;;4.92;100.00;99837.69;5062248;28;20036;-72
2024/02/25 02:13:45;;;;;;;7.38;3.50;;;;;;;4.94;100.00;99836.00;5063630;28;20033;-74
2024/02/25 02:16:18;;;;;;;7.68;3.45;;;;;;;4.94;100.00;99849.09;5063280;28;20064;-76
2024/02/25 02:18:44;;;;;;;8.63;3.47;;;;;;;4.84;100.00;99843.72;5063410;28;20078;-72
2024/02/25 02:21:14;;;;;;;9.68;3.50;;;;;;;4.59;100.00;99846.91;5062683;28;20025;-72
2024/02/25 02:23:39;;;;;;;9.25;3.67;;;;;;;4.41;100.00;99848.41;5062663;28;20029;-76
2024/02/25 02:26:05;;;;;;;10.27;3.88;;;;;;;4.29;100.00;99838.66;5063856;28;20051;-83
2024/02/25 02:28:30;;;;;;;8.93;3.70;;;;;;;4.28;100.00;99843.88;5062639;28;20033;-85
2024/02/25 02:30:56;;;;;;;9.98;3.67;;;;;;;4.20;100.00;99849.00;5063899;28;20033;-86
2024/02/25 02:33:21;;;;;;;9.40;3.60;;;;;;;4.19;100.00;99839.38;5061630;28;20025;-86
2024/02/25 02:35:46;;;;;;;8.70;3.70;;;;;;;4.16;100.00;99842.84;5064682;28;20025;-86
2024/02/25 02:38:12;;;;;;;9.02;3.70;;;;;;;4.13;100.00;99842.78;5062793;28;20028;-87
2024/02/25 02:40:38;;;;;;;9.90;3.80;;;;;;;4.17;100.00;99843.75;5063175;28;20025;-87
2024/02/25 02:43:04;;;;;;;7.20;3.50;;;;;;;4.25;100.00;99843.84;5062855;28;20502;-86
2024/02/25 02:45:30;;;;;;;7.68;3.53;;;;;;;4.31;100.00;99850.03;5062078;28;20064;-87
2024/02/25 02:47:56;;;;;;;8.35;3.40;;;;;;;4.34;100.00;99844.84;5065519;28;20029;-75
2024/02/25 02:50:21;;;;;;;7.68;3.30;;;;;;;4.47;100.00;99848.53;5059337;28;20033;-86
2024/02/25 02:52:46;;;;;;;9.00;3.40;;;;;;;4.50;100.00;99843.31;5065519;28;20094;-87
2024/02/25 02:55:12;;;;;;;6.55;3.25;;;;;;;4.54;100.00;99837.28;5062944;28;20067;-86
2024/02/25 02:57:37;;;;;;;7.47;3.10;;;;;;;4.62;100.00;99842.59;5062809;28;20029;-86
2024/02/25 03:00:03;;;;;;;7.32;3.10;;;;;;;4.62;100.00;99841.72;5063552;28;20028;-85
2024/02/25 03:02:28;;;;;;;6.78;3.10;;;;;;;4.64;100.00;99845.22;5061699;28;20043;-76
2024/02/25 03:04:53;;;;;;;5.95;3.08;;;;;;;4.60;100.00;99846.03;5064661;28;20028;-78
2024/02/25 03:07:19;;;;;;;7.05;3.00;;;;;;;4.60;100.00;99843.44;5061278;28;20061;-87
2024/02/25 03:09:44;;;;;;;6.75;3.00;;;;;;;4.52;100.00;99844.19;5063815;28;20108;-87
2024/02/25 03:12:09;;;;;;;6.32;3.00;;;;;;;4.38;100.00;99842.28;5061263;28;20077;-85
2024/02/25 03:14:36;;;;;;;8.23;3.20;;;;;;;4.25;100.00;99851.69;5062193;28;20025;-86
2024/02/25 03:17:01;;;;;;;8.32;3.33;;;;;;;4.13;100.00;99840.19;5064113;28;20371;-86
2024/02/25 03:19:27;;;;;;;5.47;3.10;;;;;;;4.05;100.00;99831.38;5059927;28;20036;-87
2024/02/25 03:21:52;;;;;;;7.38;3.28;;;;;;;4.11;100.00;99834.06;5064361;28;20115;-86
2024/02/25 03:24:17;;;;;;;7.85;3.30;;;;;;;4.02;100.00;99844.41;5061416;28;20029;-74
2024/02/25 03:26:47;;;;;;;7.30;3.20;;;;;;;4.02;100.00;99849.63;5063121;28;20033;-75
2024/02/25 03:29:13;;;;;;;8.63;3.40;;;;;;;4.04;100.00;99840.06;5060820;28;20081;-73
2024/02/25 03:31:39;;;;;;;9.23;3.40;;;;;;;4.02;100.00;99852.25;5062707;28;20021;-72
2024/02/25 03:34:04;;;;;;;9.15;3.30;;;;;;;4.00;100.00;99857.47;5062125;28;20130;-72
2024/02/25 03:36:30;;;;;;;7.25;3.30;;;;;;;4.06;100.00;99850.53;5061354;28;20025;-72
2024/02/25 03:38:55;;;;;;;9.02;3.58;;;;;;;4.00;100.00;99854.84;5064198;28;20058;-72
2024/02/25 03:41:20;;;;;;;7.57;3.40;;;;;;;4.00;100.00;99846.09;5060763;28;20071;-74
2024/02/25 03:43:46;;;;;;;7.38;3.47;;;;;;;3.96;100.00;99859.97;5063279;28;20170;-71
2024/02/25 03:46:11;;;;;;;9.18;3.50;;;;;;;3.93;100.00;99855.59;5061979;28;20490;-71
2024/02/25 03:48:36;;;;;;;9.45;3.83;;;;;;;3.93;100.00;99865.16;5061908;28;20037;-73
2024/02/25 03:51:02;;;;;;;9.98;3.67;;;;;;;3.91;100.00;99851.19;5063431;28;20051;-74
2024/02/25 03:53:28;;;;;;;11.00;3.80;;;;;;;3.82;100.00;99847.56;5060846;28;20036;-74
2024/02/25 03:55:53;;;;;;;10.70;4.00;;;;;;;3.83;100.00;99853.69;5063993;28;20487;-73
2024/02/25 03:58:18;;;;;;;10.60;3.70;;;;;;;3.84;100.00;99856.34;5061009;28;20095;-74
2024/02/25 04:00:44;;;;;;;12.77;3.85;;;;;;;3.82;100.00;99850.19;5062823;28;20043;-72
2024/02/25 04:03:09;;;;;;;10.20;3.90;;;;;;;3.81;100.00;99861.50;5061857;28;20040;-74
2024/02/25 04:05:34;;;;;;;12.35;3.90;;;;;;;3.83;100.00;99858.94;5061729;28;20032;-75
2024/02/25 04:08:00;;;;;;;10.15;3.90;;;;;;;3.81;100.00;99861.50;5063264;28;20162;-75
2024/02/25 04:10:25;;;;;;;13.27;4.30;;;;;;;3.82;100.00;99859.78;5060434;28;20021;-72
2024/02/25 04:12:51;;;;;;;12.20;4.25;;;;;;;3.78;100.00;99855.34;5062482;28;20029;-71
2024/02/25 04:15:16;;;;;;;12.32;4.38;;;;;;;3.80;100.00;99866.69;5059619;28;20078;-71
2024/02/25 04:17:41;;;;;;;11.93;4.13;;;;;;;3.79;100.00;99860.59;5062589;28;20411;-87
2024/02/25 04:20:07;;;;;;;11.10;4.03;;;;;;;3.78;100.00;99856.22;5062306;28;20066;-87
2024/02/25 04:22:33;;;;;;;12.40;4.18;;;;;;;3.78;100.00;99861.44;5061062;28;20040;-85
2024/02/25 04:24:59;;;;;;;13.40;4.50;;;;;;;3.78;100.00;99871.03;5063707;28;20433;-74
2024/02/25 04:27:24;;;;;;;12.13;4.30;;;;;;;3.77;100.00;99869.25;5060434;28;20048;-71
2024/02/25 04:29:50;;;;;;;12.40;4.47;;;;;;;3.77;100.00;99864.94;5063442;28;20029;-88
2024/02/25 04:32:15;;;;;;;13.85;4.72;;;;;;;3.79;100.00;99872.81;5061144;28;20056;-87
2024/02/25 04:34:41;;;;;;;13.85;4.80;;;;;;;3.80;100.00;99875.44;5062050;28;20037;-87
2024/02/25 04:37:07;;;;;;;13.98;4.78;;;;;;;3.77;100.00;99878.00;5062274;28;20045;-88
2024/02/25 04:39:32;;;;;;;14.48;5.15;;;;;;;3.78;100.00;99868.41;5061180;28;20029;-85
2024/02/25 04:41:58;;;;;;;15.07;5.00;;;;;;;3.79;100.00;99872.81;5063388;28;20035;-88
2024/02/25 04:44:24;;;;;;;13.93;5.18;;;;;;;3.77;100.00;99867.53;5062674;28;20017;-87
2024/02/25 04:46:49;;;;;;;16.90;6.07;;;;;;;3.78;100.00;99871.03;5066736;28;20044;-87
2024/02/25 04:49:18;;;;;;;17.08;6.55;;;;;;;3.81;100.00;99869.31;5064711;28;20031;-85
2024/02/25 04:51:44;;;;;;;17.73;6.38;;;;;;;3.78;100.00;99878.88;5065906;28;20123;-83
2024/02/25 04:54:12;;;;;;;17.70;6.47;;;;;;;3.82;100.00;99873.72;5065564;28;20025;-85
2024/02/25 04:56:40;;;;;;;17.27;6.20;;;;;;;3.82;100.00;99883.31;5065213;28;20319;-86
2024/02/25 04:59:05;;;;;;;17.63;6.60;;;;;;;3.78;100.00;99871.91;5065640;28;20067;-82
2024/02/25 05:01:31;;;;;;;18.38;6.68;;;;;;;3.77;100.00;99867.53;5064029;28;20068;-76
2024/02/25 05:03:57;;;;;;;18.20;6.88;;;;;;;3.72;100.00;99865.72;5065547;28;20127;-74
2024/02/25 05:06:23;;;;;;;18.13;6.95;;;;;;;3.71;100.00;99877.00;5057320;28;20040;-74
2024/02/25 05:08:48;;;;;;;18.23;7.35;;;;;;;3.74;100.00;99870.13;5063983;28;20037;-72
2024/02/25 05:11:14;;;;;;;18.13;7.20;;;;;;;3.74;100.00;99875.34;5065483;28;20037;-71
2024/02/25 05:13:41;;;;;;;18.52;7.70;;;;;;;3.77;100.00;99880.63;5065291;28;20031;-78
2024/02/25 05:16:11;;;;;;;19.08;7.97;;;;;;;3.78;100.00;99871.03;5064634;28;20112;-85
2024/02/25 05:18:38;;;;;;;20.05;7.93;;;;;;;3.77;100.00;99875.38;5065343;28;20053;-88
2024/02/25 05:21:04;;;;;;;18.70;7.80;;;;;;;3.78;100.00;99877.13;5063860;28;20078;-88
2024/02/25 05:23:30;;;;;;;19.08;8.13;;;;;;;3.78;100.00;99886.72;5065251;28;20059;-84
2024/02/25 05:25:56;;;;;;;19.33;7.72;;;;;;;3.77;100.00;99874.50;5063292;28;20384;-84
2024/02/25 05:28:21;;;;;;;19.67;8.27;;;;;;;3.77;100.00;99879.72;5066352;28;20053;-79
2024/02/25 05:30:46;;;;;;;19.80;8.48;;;;;;;3.79;100.00;99884.13;5064068;28;20029;-85
2024/02/25 05:33:12;;;;;;;20.10;8.13;;;;;;;3.80;100.00;99896.34;5065207;28;20373;-84
2024/02/25 05:35:39;;;;;;;19.20;7.80;;;;;;;3.82;100.00;99896.38;5065288;28;20036;-84
2024/02/25 05:38:04;;;;;;;20.25;8.27;;;;;;;3.81;100.00;99895.47;5063724;28;20021;-85
2024/02/25 05:40:30;;;;;;;19.63;8.05;;;;;;;3.76;100.00;99897.16;5065790;28;20031;-85
2024/02/25 05:42:55;;;;;;;19.60;8.30;;;;;;;3.74;100.00;99883.19;5062863;28;20084;-85
2024/02/25 05:45:20;;;;;;;19.40;8.35;;;;;;;3.75;100.00;99898.00;5065769;28;20041;-78
2024/02/25 05:47:46;;;;;;;20.08;8.20;;;;;;;3.76;100.00;99898.91;5062094;28;20059;-86
2024/02/25 05:50:11;;;;;;;19.52;8.07;;;;;;;3.81;100.00;99898.09;5064552;28;20029;-85
2024/02/25 05:52:38;;;;;;;19.80;8.05;;;;;;;3.82;100.00;99904.22;5064658;28;20043;-82
2024/02/25 05:55:04;;;;;;;20.60;8.93;;;;;;;3.80;100.00;99906.81;5061814;28;20029;-75
2024/02/25 05:57:30;;;;;;;20.02;8.85;;;;;;;3.81;100.00;99902.44;5065634;28;20032;-79
2024/02/25 05:59:56;;;;;;;20.35;8.90;;;;;;;3.82;100.00;99910.31;5062373;28;20075;-85
2024/02/25 06:02:22;;;;;;;20.38;8.73;;;;;;;3.83;100.00;99912.09;5065442;28;20040;-74
2024/02/25 06:04:47;;;;;;;22.20;9.23;;;;;;;3.84;100.00;99908.63;5063098;28;20036;-72
2024/02/25 06:07:13;;;;;;;21.02;9.02;;;;;;;3.86;100.00;99907.75;5064172;28;20037;-72
2024/02/25 06:09:38;;;;;;;21.33;9.43;;;;;;;3.86;100.00;99915.59;5063095;28;20028;-72
2024/02/25 06:12:03;;;;;;;20.65;9.23;;;;;;;3.88;100.00;99914.78;5062957;28;20032;-73
2024/02/25 06:14:30;;;;;;;20.95;9.00;;;;;;;3.89;100.00;99926.09;5063962;28;20039;-72
2024/02/25 06:16:55;;;;;;;20.08;8.80;;;;;;;3.90;100.00;99922.63;5061912;28;20021;-73
2024/02/25 06:19:21;;;;;;;21.52;9.13;;;;;;;3.88;100.00;99914.78;5065152;28;20425;-72
2024/02/25 06:21:46;;;;;;;21.63;10.18;;;;;;;3.90;100.00;99917.41;5062879;28;20095;-72
2024/02/25 06:24:12;;;;;;;21.58;9.50;;;;;;;3.84;100.00;99913.84;5064168;28;20463;-73
2024/02/25 06:26:37;;;;;;;22.20;9.80;;;;;;;3.89;100.00;99923.50;5063959;28;20036;-73
2024/02/25 06:29:03;;;;;;;21.10;9.95;;;;;;;3.88;100.00;99924.38;5062416;28;20388;-72
2024/02/25 06:31:32;;;;;;;21.92;10.15;;;;;;;3.87;100.00;99928.69;5064257;28;20032;-72
2024/02/25 06:33:58;;;;;;;22.40;10.60;;;;;;;3.89;100.00;99932.22;5061534;28;20027;-72
2024/02/25 06:36:23;;;;;;;22.50;10.15;;;;;;;3.89;100.00;99926.09;5057517;28;20426;-71
2024/02/25 06:38:49;;;;;;;21.58;10.27;;;;;;;3.87;100.00;99933.91;5064566;28;20550;-71
2024/02/25 06:41:22;;;;;;;21.92;10.40;;;;;;;3.91;100.00;99924.41;5062818;28;20146;-73
2024/02/25 06:43:48;;;;;;;21.33;10.30;;;;;;;3.88;100.00;99934.81;5064026;28;20033;-73
2024/02/25 06:46:13;;;;;;;22.63;10.77;;;;;;;3.86;100.00;99929.56;5063004;28;20060;-72
2024/02/25 06:48:39;;;;;;;22.50;10.77;;;;;;;3.89;100.00;99933.94;5062622;28;20079;-73
2024/02/25 06:51:04;;;;;;;22.73;10.57;;;;;;;3.87;100.00;99939.16;5064002;28;20021;-73
2024/02/25 06:53:33;;;;;;;23.13;11.30;;;;;;;3.88;100.00;99937.44;5061700;28;20379;-73
2024/02/25 06:55:59;;;;;;;22.45;11.20;;;;;;;3.87;100.00;99936.53;5064536;28;20040;-73
2024/02/25 06:58:25;;;;;;;23.17;11.60;;;;;;;3.90;100.00;99943.56;5061265;28;20033;-73
2024/02/25 07:00:50;;;;;;;22.30;11.35;;;;;;;3.91;100.00;99943.59;5064330;28;20467;-72
2024/02/25 07:03:15;;;;;;;22.35;11.43;;;;;;;3.92;100.00;99953.19;5063784;28;20082;-72
2024/02/25 07:05:44;;;;;;;23.23;11.35;;;;;;;3.96;100.00;99947.19;5082609;28;20036;-72
2024/02/25 07:08:09;;;;;;;22.27;10.60;;;;;;;3.98;100.00;99953.28;5083143;28;20467;-72
2024/02/25 07:10:35;;;;;;;21.92;10.63;;;;;;;4.00;100.00;99956.84;5082080;28;20032;-72
2024/02/25 07:13:01;;;;;;;23.45;11.13;;;;;;;4.02;100.00;99964.72;5084341;28;20030;-72
2024/02/25 07:15:26;;;;;;;23.58;11.63;;;;;;;4.03;100.00;99969.06;5063481;28;20417;-72
2024/02/25 07:17:53;;;;;;;23.83;11.15;;;;;;;4.01;100.00;99962.94;5084278;28;20112;-72
2024/02/25 07:20:21;;;;;;;23.23;11.13;;;;;;;3.99;100.00;99964.63;5081637;28;20028;-72
2024/02/25 07:22:47;;;;;;;23.67;10.95;;;;;;;3.99;100.00;99959.41;5083679;28;20403;-71
2024/02/25 07:25:13;;;;;;;24.10;12.60;;;;;;;4.01;100.00;99968.16;5064777;28;20076;-72
2024/02/25 07:27:38;;;;;;;24.55;12.32;;;;;;;4.02;100.00;99959.47;5082048;28;20399;-80
2024/02/25 07:30:04;;;;;;;23.88;12.27;;;;;;;4.03;100.00;99971.69;5065910;28;20028;-86
2024/02/25 07:32:29;;;;;;;25.25;14.63;;;;;;;4.03;100.00;99974.28;5080837;28;20029;-85
2024/02/25 07:34:54;;;;;;;23.08;11.00;;;;;;;4.03;100.00;99965.56;5084164;28;20024;-84
2024/02/25 07:37:21;;;;;;;23.05;11.57;;;;;;;4.00;100.00;99971.63;5046756;28;20067;-79
2024/02/25 07:39:47;;;;;;;22.65;11.55;;;;;;;3.99;100.00;99970.75;5083403;28;20036;-86
2024/02/25 07:42:12;;;;;;;23.08;11.15;;;;;;;4.04;100.00;99975.19;5064565;28;20028;-84
2024/02/25 07:44:38;;;;;;;22.35;10.82;;;;;;;4.06;100.00;99973.47;5082356;28;20025;-83
2024/02/25 07:47:03;;;;;;;22.85;10.88;;;;;;;4.08;100.00;99971.75;5084002;28;20021;-84
2024/02/25 07:49:28;;;;;;;21.75;10.60;;;;;;;4.08;100.00;99964.81;5081678;28;20071;-84
2024/02/25 07:51:55;;;;;;;23.38;11.18;;;;;;;4.13;100.00;99980.56;5084776;28;20057;-86
2024/02/25 07:54:21;;;;;;;22.55;10.90;;;;;;;4.16;100.00;99975.38;5081562;28;20032;-77
2024/02/25 07:56:46;;;;;;;22.63;10.85;;;;;;;4.19;100.00;99978.03;5083726;28;20429;-76
2024/02/25 07:59:11;;;;;;;22.52;11.00;;;;;;;4.22;100.00;99982.47;5082446;28;20058;-74
2024/02/25 08:01:37;;;;;;;22.48;10.57;;;;;;;4.27;100.00;99984.28;5081884;28;20063;-74
2024/02/25 08:04:02;;;;;;;22.05;10.80;;;;;;;4.27;100.00;99980.81;5070951;28;20052;-75
2024/02/25 08:06:28;;;;;;;22.55;11.13;;;;;;;4.28;100.00;99987.78;5060928;28;20056;-78
2024/02/25 08:08:57;;;;;;;22.85;11.23;;;;;;;4.31;100.00;99978.25;5062959;28;20032;-84
2024/02/25 08:11:22;;;;;;;23.38;11.90;;;;;;;4.33;100.00;99976.53;5060760;28;20032;-72
2024/02/25 08:13:48;;;;;;;22.90;10.80;;;;;;;4.33;100.00;99996.59;5062864;28;20062;-73
2024/02/25 08:16:13;;;;;;;22.83;11.00;;;;;;;4.34;100.00;99993.13;5061784;28;20017;-72
2024/02/25 08:18:46;;;;;;;21.52;10.77;;;;;;;4.37;100.00;99987.94;5063255;28;20039;-72
2024/02/25 08:21:12;;;;;;;22.88;11.43;;;;;;;4.36;100.00;99988.81;5065791;28;20382;-72
2024/02/25 08:23:37;;;;;;;23.23;11.80;;;;;;;4.39;100.00;99996.69;5065268;28;20032;-72
2024/02/25 08:26:03;;;;;;;23.52;11.32;;;;;;;4.43;100.00;99992.41;5067167;28;20421;-72
2024/02/25 08:28:29;;;;;;;22.77;11.07;;;;;;;4.46;100.00;99988.09;5064065;28;20543;-72
2024/02/25 08:30:54;;;;;;;23.10;11.73;;;;;;;4.56;100.00;99990.84;5067405;28;20062;-73
2024/02/25 08:33:20;;;;;;;23.02;11.68;;;;;;;4.66;100.00;99988.41;5046844;28;20064;-72
2024/02/25 08:35:45;;;;;;;23.65;12.70;;;;;;;4.70;100.00;99994.53;5064678;28;20029;-73
2024/02/25 08:38:11;;;;;;;23.27;12.70;;;;;;;4.74;100.00;99998.09;5065804;28;20413;-73
2024/02/25 08:40:36;;;;;;;24.48;12.82;;;;;;;4.81;100.00;99989.47;5064814;28;20044;-72
2024/02/25 08:43:02;;;;;;;25.23;13.02;;;;;;;4.91;100.00;100000.94;5066895;28;20029;-72
2024/02/25 08:45:28;;;;;;;25.45;13.45;;;;;;;4.89;100.00;99999.19;5063772;28;20039;-87
2024/02/25 08:47:53;;;;;;;24.20;13.13;;;;;;;4.95;100.00;100003.66;5066989;28;20063;-75
2024/02/25 08:50:18;;;;;;;24.95;13.30;;;;;;;4.93;100.00;99994.00;5064510;28;20378;-76
2024/02/25 08:52:44;;;;;;;24.63;14.02;;;;;;;4.94;100.00;99990.53;5065815;28;20029;-72
2024/02/25 08:55:09;;;;;;;24.70;14.23;;;;;;;5.03;100.00;99994.13;5065977;28;20032;-88
2024/02/25 08:57:35;;;;;;;25.98;15.30;;;;;;;5.26;100.00;99997.91;5064239;28;20086;-83
2024/02/25 09:00:00;;;;;;;26.88;15.15;;;;;;;5.54;100.00;100000.00;5066997;28;20025;-86
2024/02/25 09:02:25;;;;;;;26.48;15.60;;;;;;;5.59;100.00;100002.66;5063489;28;20041;-86
2024/02/25 09:04:51;;;;;;;26.35;14.63;;;;;;;5.49;100.00;100006.03;5066204;28;20072;-88
2024/02/25 09:07:17;;;;;;;24.58;14.25;;;;;;;5.51;100.00;100007.84;5064354;28;20083;-88
2024/02/25 09:09:43;;;;;;;23.80;13.32;;;;;;;5.52;100.00;100009.59;5065020;28;20040;-89
2024/02/25 09:12:09;;;;;;;24.35;12.73;;;;;;;5.42;100.00;100002.50;5065743;28;20025;-88
2024/02/25 09:14:35;;;;;;;22.55;11.95;;;;;;;5.40;100.00;100005.09;5064139;28;20044;-86
2024/02/25 09:17:00;;;;;;;23.23;12.23;;;;;;;5.33;100.00;100005.88;5065430;28;20020;-87
2024/02/25 09:19:25;;;;;;;22.88;11.50;;;;;;;5.32;100.00;99995.38;5063200;28;20531;-87
2024/02/25 09:21:51;;;;;;;22.85;11.30;;;;;;;5.31;100.00;99989.25;5066083;28;20106;-85
2024/02/25 09:24:17;;;;;;;22.15;10.80;;;;;;;5.30;100.00;99999.72;5064132;28;20074;-72
2024/02/25 09:26:45;;;;;;;22.73;10.65;;;;;;;5.33;100.00;99998.03;5064869;28;20060;-72
2024/02/25 09:29:11;;;;;;;20.83;10.13;;;;;;;5.41;100.00;100003.34;5064754;28;20365;-71
2024/02/25 09:31:36;;;;;;;21.60;10.50;;;;;;;5.39;100.00;99999.84;5063661;28;20036;-72
2024/02/25 09:34:04;;;;;;;20.90;9.25;;;;;;;5.39;100.00;99999.84;5066329;28;20037;-72
2024/02/25 09:36:30;;;;;;;23.67;9.43;;;;;;;5.37;100.00;100005.06;5062793;28;20033;-72
2024/02/25 09:38:55;;;;;;;20.15;8.88;;;;;;;5.34;100.00;100004.13;5058584;28;20087;-73
2024/02/25 09:41:39;;;;;;;20.10;8.32;;;;;;;5.36;100.00;100000.69;5065641;28;20082;-72
2024/02/25 09:44:10;;;;;;;21.20;8.20;;;;;;;5.30;100.00;100000.59;5060431;28;20029;-72
2024/02/25 09:46:36;;;;;;;20.25;8.77;;;;;;;5.26;100.00;99995.28;5065576;28;20017;-73
2024/02/25 09:49:03;;;;;;;19.38;7.80;;;;;;;5.30;100.00;99998.00;5062391;28;20091;-72
2024/02/25 09:51:30;;;;;;;19.65;8.02;;;;;;;5.46;100.00;100004.28;5065953;28;20032;-72
2024/02/25 09:53:57;;;;;;;19.70;8.60;;;;;;;5.92;100.00;100006.53;5058576;28;20036;-72
2024/02/25 09:56:22;;;;;;;18.60;7.40;;;;;;;6.11;100.00;100013.72;5064299;28;20020;-73
2024/02/25 09:58:48;;;;;;;18.65;7.10;;;;;;;6.45;100.00;99993.03;5062057;28;20024;-73
2024/02/25 10:01:17;;;;;;;18.33;6.25;;;;;;;7.19;100.00;99996.97;5064365;28;20036;-72
2024/02/25 10:03:43;;;;;;;17.48;6.18;;;;;;;7.24;100.00;99996.13;5063835;28;20053;-73
2024/02/25 10:06:10;;;;;;;16.88;5.72;;;;;;;7.13;100.00;99988.16;5063302;28;20058;-73
2024/02/25 10:08:51;;;;;;;17.02;5.63;;;;;;;6.87;100.00;99982.78;5063941;28;20032;-73
2024/02/25 10:11:16;;;;;;;16.40;5.70;;;;;;;6.57;100.00;99986.13;5064477;28;20033;-74
2024/02/25 10:13:43;;;;;;;18.02;6.22;;;;;;;6.71;100.00;99994.06;5063251;28;20107;-72
2024/02/25 10:16:18;;;;;;;16.10;5.70;;;;;;;6.74;100.00;99980.97;5062431;28;20056;-73
2024/02/25 10:18:45;;;;;;;16.70;5.40;;;;;;;6.70;100.00;99976.53;5063322;28;20044;-86
2024/02/25 10:21:11;;;;;;;16.98;5.68;;;;;;;6.51;100.00;99984.31;5063713;28;20029;-87
2024/02/25 10:23:37;;;;;;;16.20;5.20;;;;;;;6.27;100.00;99970.13;5046246;28;20043;-88
2024/02/25 10:26:17;;;;;;;16.63;5.30;;;;;;;6.18;100.00;99975.31;5062688;28;20483;-82
2024/02/25 10:28:43;;;;;;;14.95;5.13;;;;;;;6.33;100.00;99976.31;5063555;28;20021;-85
2024/02/25 10:31:10;;;;;;;16.08;5.40;;;;;;;6.54;100.00;99975.56;5063114;28;20051;-87
2024/02/25 10:33:37;;;;;;;14.95;5.13;;;;;;;6.74;100.00;99973.06;5064000;28;20032;-80
2024/02/25 10:36:13;;;;;;;14.68;5.22;;;;;;;6.79;100.00;99966.97;5062466;28;20410;-83
2024/02/25 10:38:46;;;;;;;15.20;5.00;;;;;;;6.74;100.00;99976.59;5062305;28;20071;-72
2024/02/25 10:41:13;;;;;;;17.42;5.60;;;;;;;6.56;100.00;99974.72;5061710;28;20017;-72
2024/02/25 10:43:39;;;;;;;17.48;5.63;;;;;;;6.44;100.00;99974.66;5064767;28;20115;-74
2024/02/25 10:46:36;;;;;;;17.33;5.38;;;;;;;6.54;100.00;99986.97;5061562;28;20384;-87
2024/02/25 10:49:06;;;;;;;15.63;5.25;;;;;;;6.51;100.00;99992.19;5061569;28;20384;-86
2024/02/25 10:51:34;;;;;;;16.08;5.18;;;;;;;6.61;100.00;99974.75;5070697;28;20070;-82
2024/02/25 10:54:00;;;;;;;15.63;5.18;;;;;;;6.67;100.00;99972.19;5062887;28;20037;-72
2024/02/25 10:56:29;;;;;;;16.50;5.00;;;;;;;6.63;100.00;99976.50;5065025;28;20029;-82
2024/02/25 10:58:56;;;;;;;15.75;4.80;;;;;;;6.77;100.00;99966.09;5057525;28;20032;-87
2024/02/25 11:01:24;;;;;;;14.60;4.55;;;;;;;6.72;100.00;99980.09;5064685;28;20063;-84
2024/02/25 11:03:50;;;;;;;13.50;4.32;;;;;;;6.69;100.00;99970.44;5061373;28;20060;-73
2024/02/25 11:06:38;;;;;;;14.48;4.97;;;;;;;7.74;100.00;99984.00;5063612;28;20056;-88
2024/02/25 11:09:13;;;;;;;12.90;4.50;;;;;;;9.01;100.00;99979.63;5058989;28;20564;-77
2024/02/25 11:11:40;;;;;;;14.30;3.95;;;;;;;9.24;100.00;99973.38;5061639;28;20376;-85
2024/02/25 11:14:10;;;;;;;12.23;3.30;;;;;;;9.38;100.00;99954.88;5062039;28;20451;-85
2024/02/25 11:16:39;;;;;;;11.50;3.10;;;;;;;9.03;100.00;99951.50;5063553;28;20376;-73
2024/02/25 11:19:07;;;;;;;8.23;3.00;;;;;;;8.61;100.00;99955.13;5062012;28;20027;-73